createdAt,value
2018-09-19T00:00:34.048Z,41.55
2018-09-19T00:03:02.001Z,44.38
2018-09-19T00:05:29.914Z,47.45
2018-09-19T00:07:57.831Z,48.98
2018-09-19T00:10:25.759Z,45.88
2018-09-19T00:12:53.676Z,47.15
2018-09-19T00:15:21.565Z,52.13
2018-09-19T00:17:49.522Z,52.67
2018-09-19T00:20:17.509Z,59.35
2018-09-19T00:22:45.358Z,59.20
2018-09-19T00:25:13.297Z,58.28
2018-09-19T00:27:41.279Z,58.48
2018-09-19T00:30:09.349Z,55.80
2018-09-19T00:32:37.453Z,54.03
2018-09-19T00:35:05.374Z,50.98
2018-09-19T00:37:35.004Z,61.55
2018-09-19T00:40:02.936Z,60.98
2018-09-19T00:42:30.942Z,63.40
2018-09-19T00:44:58.877Z,63.50
2018-09-19T00:47:26.801Z,52.55
2018-09-19T00:49:54.708Z,59.73
2018-09-19T00:52:22.666Z,63.78
2018-09-19T00:54:50.581Z,61.35
2018-09-19T00:57:18.350Z,62.95
2018-09-19T00:59:46.132Z,61.63
2018-09-19T01:02:13.864Z,63.78
2018-09-19T01:04:41.689Z,68.55
2018-09-19T01:07:09.428Z,62.85
2018-09-19T01:09:37.138Z,56.02
2018-09-19T01:12:05.293Z,54.77
2018-09-19T01:14:37.156Z,49.33
2018-09-19T01:17:04.947Z,63.23
2018-09-19T01:19:32.785Z,67.70
2018-09-19T01:22:00.520Z,61.58
2018-09-19T01:24:28.265Z,61.83
2018-09-19T01:26:55.998Z,55.17
2018-09-19T01:29:25.750Z,59.90
2018-09-19T01:31:53.813Z,56.77
2018-09-19T01:34:22.532Z,72.72
2018-09-19T01:36:50.296Z,63.15
2018-09-19T01:39:19.039Z,67.72
2018-09-19T01:41:46.810Z,60.45
2018-09-19T01:44:14.537Z,63.65
2018-09-19T01:46:43.259Z,72.75
2018-09-19T01:49:11.004Z,86.25
2018-09-19T01:51:38.778Z,84.22
2018-09-19T01:54:06.733Z,88.82
2018-09-19T01:56:36.554Z,98.90
2018-09-19T01:59:04.370Z,93.90
2018-09-19T02:01:33.132Z,106.12
2018-09-19T02:04:00.896Z,100.40
2018-09-19T02:06:36.163Z,87.97
2018-09-19T02:09:06.718Z,83.92
2018-09-19T02:11:36.478Z,99.62
2018-09-19T02:14:04.260Z,86.05
2018-09-19T02:16:32.009Z,88.25
2018-09-19T02:18:59.789Z,88.23
2018-09-19T02:21:27.597Z,80.55
2018-09-19T02:23:55.423Z,79.25
2018-09-19T02:30:20.807Z,59.77
2018-09-19T02:32:48.607Z,55.88
2018-09-19T02:35:16.450Z,58.02
2018-09-19T02:38:05.164Z,57.25
2018-09-19T02:40:33.021Z,62.48
2018-09-19T02:43:00.770Z,64.10
2018-09-19T02:45:28.497Z,63.55
2018-09-19T02:47:56.215Z,58.98
2018-09-19T02:50:23.959Z,62.67
2018-09-19T02:52:55.447Z,72.62
2018-09-19T02:55:23.920Z,69.35
2018-09-19T02:57:53.667Z,84.92
2018-09-19T03:00:21.490Z,81.82
2018-09-19T03:02:49.588Z,88.00
2018-09-19T03:05:17.328Z,89.35
2018-09-19T03:07:45.095Z,77.12
2018-09-19T03:10:12.869Z,73.42
2018-09-19T03:12:40.714Z,66.35
2018-09-19T03:15:08.581Z,67.47
2018-09-19T03:17:36.444Z,52.13
2018-09-19T03:20:04.226Z,56.25
2018-09-19T03:22:31.949Z,52.05
2018-09-19T03:25:00.733Z,54.77
2018-09-19T03:27:28.495Z,49.00
2018-09-19T03:29:56.245Z,48.45
2018-09-19T03:32:23.965Z,39.78
2018-09-19T03:34:52.739Z,41.92
2018-09-19T03:37:20.541Z,38.23
2018-09-19T03:39:48.308Z,36.60
2018-09-19T03:42:16.107Z,31.50
2018-09-19T03:44:43.840Z,31.97
2018-09-19T03:47:11.790Z,38.65
2018-09-19T03:49:39.839Z,41.02
2018-09-19T03:52:07.757Z,36.42
2018-09-19T03:54:35.747Z,33.13
2018-09-19T03:57:03.735Z,28.27
2018-09-19T03:59:31.733Z,38.53
2018-09-19T04:01:59.617Z,31.12
2018-09-19T04:04:27.556Z,37.17
2018-09-19T04:06:55.495Z,35.83
2018-09-19T04:09:23.410Z,40.75
2018-09-19T04:11:51.252Z,41.10
2018-09-19T04:14:19.271Z,39.10
2018-09-19T04:16:47.173Z,32.50
2018-09-19T04:19:15.113Z,40.28
2018-09-19T04:21:51.508Z,37.40
2018-09-19T04:24:19.412Z,40.92
2018-09-19T04:26:47.419Z,34.00
2018-09-19T04:29:15.646Z,49.85
2018-09-19T04:31:43.881Z,44.50
2018-09-19T04:34:12.135Z,46.35
2018-09-19T04:36:40.132Z,48.35
2018-09-19T04:39:09.416Z,45.55
2018-09-19T04:41:37.456Z,35.45
2018-09-19T04:44:05.984Z,37.98
2018-09-19T04:46:33.975Z,39.90
2018-09-19T04:49:01.788Z,31.10
2018-09-19T04:51:29.607Z,36.60
2018-09-19T04:53:57.340Z,34.48
2018-09-19T04:56:26.094Z,30.97
2018-09-19T04:58:54.133Z,27.52
2018-09-19T05:01:22.073Z,28.27
2018-09-19T05:03:49.934Z,29.20
2018-09-19T05:06:17.778Z,30.27
2018-09-19T05:08:45.553Z,32.67
2018-09-19T05:11:13.428Z,31.57
2018-09-19T05:13:41.293Z,35.92
2018-09-19T05:16:09.293Z,31.50
2018-09-19T05:18:37.216Z,25.25
2018-09-19T05:21:05.192Z,33.33
2018-09-19T05:23:32.990Z,27.95
2018-09-19T05:26:00.842Z,24.82
2018-09-19T05:28:28.649Z,31.17
2018-09-19T05:30:56.633Z,31.60
2018-09-19T05:33:24.458Z,29.30
2018-09-19T05:35:52.227Z,27.50
2018-09-19T05:38:20.104Z,31.25
2018-09-19T05:40:47.914Z,30.65
2018-09-19T05:43:15.772Z,32.63
2018-09-19T05:45:43.637Z,29.82
2018-09-19T05:48:11.469Z,30.08
2018-09-19T05:57:08.341Z,22.17
2018-09-19T05:59:36.174Z,32.23
2018-09-19T06:02:04.023Z,25.72
2018-09-19T06:04:31.899Z,23.22
2018-09-19T06:06:59.708Z,24.00
2018-09-19T06:09:27.717Z,21.52
2018-09-19T06:11:55.653Z,25.77
2018-09-19T06:14:23.618Z,18.98
2018-09-19T06:16:51.523Z,17.67
2018-09-19T06:19:19.323Z,18.62
2018-09-19T06:21:47.146Z,27.35
2018-09-19T06:24:14.973Z,18.80
2018-09-19T06:26:43.827Z,20.30
2018-09-19T06:29:13.742Z,20.75
2018-09-19T06:31:41.589Z,20.80
2018-09-19T06:34:09.506Z,12.98
2018-09-19T06:36:37.333Z,20.15
2018-09-19T06:39:06.631Z,14.85
2018-09-19T06:41:34.522Z,16.73
2018-09-19T06:44:02.390Z,18.20
2018-09-19T06:46:30.238Z,25.60
2018-09-19T06:48:58.097Z,16.00
2018-09-19T06:51:26.068Z,20.23
2018-09-19T06:53:55.093Z,23.50
2018-09-19T06:56:35.529Z,20.25
2018-09-19T07:02:41.393Z,18.82
2018-09-19T07:05:09.287Z,21.87
2018-09-19T07:07:37.145Z,19.15
2018-09-19T07:10:05.050Z,14.55
2018-09-19T07:12:32.915Z,21.97
2018-09-19T07:15:00.747Z,19.27
2018-09-19T07:17:28.680Z,19.15
2018-09-19T07:19:56.522Z,20.88
2018-09-19T07:22:24.376Z,17.82
2018-09-19T07:24:52.213Z,15.80
2018-09-19T07:27:20.044Z,14.95
2018-09-19T07:29:48.893Z,13.98
2018-09-19T07:32:16.792Z,15.03
2018-09-19T07:34:44.768Z,14.63
2018-09-19T07:37:13.668Z,15.40
2018-09-19T07:39:41.510Z,20.92
2018-09-19T07:42:09.386Z,17.30
2018-09-19T07:44:37.252Z,13.72
2018-09-19T07:47:06.150Z,14.65
2018-09-19T07:49:34.025Z,17.67
2018-09-19T07:52:03.914Z,13.85
2018-09-19T07:54:31.910Z,19.05
2018-09-19T07:57:04.175Z,15.60
2018-09-19T07:59:32.262Z,18.67
2018-09-19T08:02:01.630Z,17.50
2018-09-19T08:04:29.606Z,16.12
2018-09-19T08:06:57.491Z,15.60
2018-09-19T08:09:25.331Z,15.95
2018-09-19T08:11:54.258Z,17.67
2018-09-19T08:14:22.177Z,17.07
2018-09-19T08:16:50.094Z,12.88
2018-09-19T08:19:17.988Z,22.55
2018-09-19T08:21:47.861Z,20.70
2018-09-19T08:24:15.700Z,17.55
2018-09-19T08:26:43.559Z,24.30
2018-09-19T08:29:13.460Z,11.60
2018-09-19T08:31:41.322Z,14.65
2018-09-19T08:34:09.235Z,12.00
2018-09-19T08:36:38.111Z,19.55
2018-09-19T08:39:07.501Z,15.95
2018-09-19T08:41:35.907Z,14.43
2018-09-19T08:47:48.462Z,16.95
2018-09-19T08:50:16.500Z,18.00
2018-09-19T08:52:44.480Z,14.70
2018-09-19T08:55:14.326Z,20.30
2018-09-19T08:57:42.426Z,12.10
2018-09-19T09:00:12.968Z,15.53
2018-09-19T09:02:40.892Z,14.78
2018-09-19T09:05:10.628Z,19.37
2018-09-19T09:07:51.073Z,12.50
2018-09-19T09:10:20.616Z,12.47
2018-09-19T09:12:49.723Z,16.50
2018-09-19T09:15:19.488Z,13.45
2018-09-19T09:17:47.444Z,16.37
2018-09-19T09:20:16.482Z,16.32
2018-09-19T09:22:44.475Z,11.90
2018-09-19T09:25:13.714Z,10.68
2018-09-19T09:27:41.659Z,10.03
2018-09-19T09:30:09.514Z,15.78
2018-09-19T09:32:37.310Z,11.25
2018-09-19T09:35:05.224Z,10.75
2018-09-19T09:37:33.293Z,10.68
2018-09-19T09:40:01.227Z,5.05
2018-09-19T09:42:29.100Z,9.45
2018-09-19T09:44:56.885Z,12.90
2018-09-19T09:47:24.837Z,11.38
2018-09-19T09:49:52.702Z,10.48
2018-09-19T09:52:20.558Z,7.92
2018-09-19T09:54:51.779Z,9.23
2018-09-19T09:57:19.624Z,9.30
2018-09-19T09:59:48.601Z,9.40
2018-09-19T10:02:16.457Z,6.70
2018-09-19T10:04:44.312Z,11.73
2018-09-19T10:07:12.154Z,7.40
2018-09-19T10:09:40.032Z,8.88
2018-09-19T10:12:07.889Z,9.53
2018-09-19T10:14:35.761Z,7.42
2018-09-19T10:17:03.585Z,10.85
2018-09-19T10:19:31.466Z,6.65
2018-09-19T10:21:59.355Z,7.47
2018-09-19T10:24:27.177Z,6.28
2018-09-19T10:26:55.021Z,6.55
2018-09-19T10:29:22.932Z,4.87
2018-09-19T10:31:50.762Z,5.37
2018-09-19T10:34:18.599Z,5.83
2018-09-19T10:36:46.459Z,6.75
2018-09-19T10:39:15.370Z,8.78
2018-09-19T10:41:43.853Z,5.83
2018-09-19T10:44:13.750Z,5.87
2018-09-19T10:46:41.575Z,7.83
2018-09-19T10:49:09.429Z,9.15
2018-09-19T10:51:37.910Z,7.40
2018-09-19T10:54:05.817Z,7.70
2018-09-19T10:56:33.600Z,8.63
2018-09-19T10:59:01.481Z,8.45
2018-09-19T11:01:29.395Z,6.83
2018-09-19T11:03:57.253Z,9.93
2018-09-19T11:06:25.102Z,7.70
2018-09-19T11:08:53.005Z,6.85
2018-09-19T11:11:20.864Z,11.10
2018-09-19T11:13:48.767Z,10.03
2018-09-19T11:16:16.594Z,6.40
2018-09-19T11:18:44.481Z,5.58
2018-09-19T11:21:34.539Z,6.10
2018-09-19T11:24:03.628Z,7.97
2018-09-19T11:26:31.647Z,5.58
2018-09-19T11:29:00.432Z,11.78
2018-09-19T11:31:28.266Z,9.03
2018-09-19T11:33:56.129Z,11.70
2018-09-19T11:36:23.958Z,8.45
2018-09-19T11:38:51.798Z,9.85
2018-09-19T11:41:19.693Z,9.13
2018-09-19T11:43:47.661Z,4.53
2018-09-19T11:46:15.540Z,7.28
2018-09-19T11:48:43.450Z,7.90
2018-09-19T11:51:11.259Z,6.70
2018-09-19T11:53:39.112Z,8.28
2018-09-19T11:56:07.958Z,9.63
2018-09-19T11:58:35.781Z,6.15
2018-09-19T12:01:03.654Z,7.50
2018-09-19T12:03:31.483Z,10.93
2018-09-19T12:05:59.309Z,7.83
2018-09-19T12:08:27.149Z,5.28
2018-09-19T12:10:55.019Z,15.53
2018-09-19T12:13:22.839Z,7.42
2018-09-19T12:15:50.745Z,5.83
2018-09-19T12:18:18.580Z,11.08
2018-09-19T12:20:46.434Z,9.13
2018-09-19T12:23:14.308Z,14.70
2018-09-19T12:25:42.193Z,10.20
2018-09-19T12:28:10.052Z,12.80
2018-09-19T12:30:37.930Z,8.38
2018-09-19T12:33:05.877Z,7.37
2018-09-19T12:35:33.731Z,6.80
2018-09-19T12:38:01.656Z,12.18
2018-09-19T12:40:29.493Z,9.50
2018-09-19T12:42:57.369Z,8.60
2018-09-19T12:45:25.258Z,10.40
2018-09-19T12:47:53.166Z,7.83
2018-09-19T12:50:20.975Z,5.25
2018-09-19T12:53:11.535Z,7.78
2018-09-19T12:55:46.866Z,7.28
2018-09-19T12:58:14.952Z,10.15
2018-09-19T13:00:42.994Z,12.73
2018-09-19T13:06:48.719Z,6.72
2018-09-19T13:09:16.746Z,6.60
2018-09-19T13:11:44.604Z,6.42
2018-09-19T13:14:12.594Z,22.27
2018-09-19T13:16:40.517Z,6.90
2018-09-19T13:19:08.452Z,7.70
2018-09-19T13:21:36.473Z,8.53
2018-09-19T13:24:07.149Z,7.58
2018-09-19T13:26:35.201Z,9.20
2018-09-19T13:29:03.224Z,6.08
2018-09-19T13:31:32.690Z,11.30
2018-09-19T13:34:00.782Z,6.92
2018-09-19T13:36:28.902Z,5.47
2018-09-19T13:38:56.833Z,12.13
2018-09-19T13:41:24.840Z,9.70
2018-09-19T13:43:52.887Z,28.25
2018-09-19T13:46:20.972Z,6.78
2018-09-19T13:48:53.233Z,12.63
2018-09-19T13:51:23.819Z,9.70
2018-09-19T13:53:51.987Z,16.50
2018-09-19T13:56:23.420Z,13.53
2018-09-19T13:58:51.504Z,4.30
2018-09-19T14:01:20.391Z,11.97
2018-09-19T14:03:48.426Z,8.73
2018-09-19T14:06:16.684Z,21.15
2018-09-19T14:08:44.709Z,9.50
2018-09-19T14:11:12.651Z,11.57
2018-09-19T14:13:40.752Z,7.58
2018-09-19T14:16:08.921Z,4.67
2018-09-19T14:18:38.876Z,12.40
2018-09-19T14:21:07.006Z,5.15
2018-09-19T14:23:35.056Z,4.53
2018-09-19T14:26:03.097Z,10.20
2018-09-19T14:28:31.255Z,7.22
2018-09-19T14:30:59.206Z,9.80
2018-09-19T14:33:27.225Z,6.85
2018-09-19T14:35:55.280Z,10.60
2018-09-19T14:38:23.239Z,13.32
2018-09-19T14:40:51.096Z,10.40
2018-09-19T14:43:19.075Z,11.53
2018-09-19T14:45:46.970Z,11.90
2018-09-19T14:48:14.989Z,11.95
2018-09-19T14:50:42.990Z,8.90
2018-09-19T14:53:10.869Z,7.60
2018-09-19T14:55:39.093Z,5.70
2018-09-19T14:58:07.095Z,10.78
2018-09-19T15:00:37.344Z,7.22
2018-09-19T15:03:05.668Z,8.43
2018-09-19T15:05:33.584Z,10.75
2018-09-19T15:08:01.497Z,8.50
2018-09-19T15:10:29.343Z,9.83
2018-09-19T15:15:58.924Z,7.78
2018-09-19T15:18:26.940Z,8.60
2018-09-19T15:20:54.750Z,3.67
2018-09-19T15:23:22.619Z,9.78
2018-09-19T15:25:50.500Z,5.37
2018-09-19T15:28:19.425Z,6.80
2018-09-19T15:30:47.337Z,8.75
2018-09-19T15:33:15.226Z,10.90
2018-09-19T15:35:43.128Z,8.18
2018-09-19T15:38:10.986Z,8.85
2018-09-19T15:40:38.865Z,5.92
2018-09-19T15:43:08.737Z,10.32
2018-09-19T15:46:16.133Z,7.85
2018-09-19T15:48:44.174Z,7.90
2018-09-19T15:51:12.106Z,7.62
2018-09-19T15:53:39.950Z,7.80
2018-09-19T15:56:09.957Z,12.45
2018-09-19T15:58:37.825Z,4.47
2018-09-19T16:01:05.675Z,12.90
2018-09-19T16:03:33.641Z,13.00
2018-09-19T16:06:02.603Z,18.60
2018-09-19T16:08:30.594Z,18.90
2018-09-19T16:10:58.497Z,8.58
2018-09-19T16:13:26.339Z,6.08
2018-09-19T16:15:54.209Z,6.37
2018-09-19T16:18:22.135Z,7.83
2018-09-19T16:20:50.104Z,7.92
2018-09-19T16:23:18.970Z,13.62
2018-09-19T16:25:46.849Z,6.60
2018-09-19T16:28:14.887Z,6.70
2018-09-19T16:30:42.936Z,11.38
2018-09-19T16:33:10.904Z,6.87
2018-09-19T16:35:38.876Z,6.83
2018-09-19T16:38:06.960Z,6.92
2018-09-19T16:40:34.907Z,7.53
2018-09-19T16:43:03.200Z,10.38
2018-09-19T16:45:33.273Z,5.95
2018-09-19T16:48:01.236Z,7.92
2018-09-19T16:50:29.280Z,14.28
2018-09-19T16:52:57.289Z,9.58
2018-09-19T16:55:25.298Z,7.22
2018-09-19T16:57:53.229Z,9.98
2018-09-19T17:00:21.229Z,11.48
2018-09-19T17:02:49.171Z,10.68
2018-09-19T17:05:17.210Z,10.65
2018-09-19T17:07:45.158Z,6.80
2018-09-19T17:10:13.399Z,11.28
2018-09-19T17:12:41.345Z,5.20
2018-09-19T17:15:09.540Z,7.33
2018-09-19T17:17:37.571Z,10.43
2018-09-19T17:20:05.912Z,10.98
2018-09-19T17:26:08.284Z,9.50
2018-09-19T17:28:40.332Z,8.88
2018-09-19T17:31:09.241Z,10.38
2018-09-19T17:33:38.151Z,6.62
2018-09-19T17:36:06.095Z,9.90
2018-09-19T17:38:33.919Z,7.97
2018-09-19T17:41:01.789Z,7.83
2018-09-19T17:43:29.580Z,10.32
2018-09-19T17:45:57.415Z,6.35
2018-09-19T17:48:25.275Z,5.28
2018-09-19T17:51:40.736Z,6.55
2018-09-19T17:54:08.721Z,8.45
2018-09-19T17:56:36.711Z,12.80
2018-09-19T17:59:04.742Z,8.85
2018-09-19T18:01:32.742Z,5.80
2018-09-19T18:04:00.717Z,8.83
2018-09-19T18:06:28.592Z,6.67
2018-09-19T18:08:56.523Z,9.70
2018-09-19T18:11:24.317Z,8.55
2018-09-19T18:13:52.161Z,8.25
2018-09-19T18:16:21.639Z,12.25
2018-09-19T18:18:49.501Z,9.05
2018-09-19T18:21:17.390Z,8.93
2018-09-19T18:23:47.133Z,13.30
2018-09-19T18:26:14.926Z,4.30
2018-09-19T18:28:43.758Z,5.85
2018-09-19T18:31:11.565Z,8.33
2018-09-19T18:33:39.429Z,10.78
2018-09-19T18:36:07.583Z,11.03
2018-09-19T18:38:35.766Z,6.97
2018-09-19T18:41:03.561Z,6.97
2018-09-19T18:43:32.093Z,9.58
2018-09-19T18:45:59.951Z,13.40
2018-09-19T18:48:27.769Z,9.53
2018-09-19T18:50:55.569Z,6.25
2018-09-19T18:53:23.438Z,10.15
2018-09-19T18:55:51.261Z,7.78
2018-09-19T18:58:19.115Z,15.80
2018-09-19T19:00:47.045Z,9.73
2018-09-19T19:03:14.846Z,9.73
2018-09-19T19:05:42.646Z,10.53
2018-09-19T19:08:11.258Z,9.63
2018-09-19T19:10:40.051Z,10.90
2018-09-19T19:13:07.918Z,8.90
2018-09-19T19:15:35.806Z,9.65
2018-09-19T19:18:03.668Z,11.03
2018-09-19T19:20:31.504Z,9.78
2018-09-19T19:22:59.409Z,9.83
2018-09-19T19:25:27.261Z,14.38
2018-09-19T19:27:55.138Z,9.58
2018-09-19T19:30:23.051Z,8.75
2018-09-19T19:32:51.622Z,8.08
2018-09-19T19:35:19.443Z,11.15
2018-09-19T19:37:47.392Z,5.42
2018-09-19T19:40:15.169Z,9.15
2018-09-19T19:42:43.029Z,8.58
2018-09-19T19:45:10.848Z,10.08
2018-09-19T19:47:38.814Z,9.90
2018-09-19T19:50:06.696Z,9.33
2018-09-19T19:52:34.768Z,12.50
2018-09-19T19:55:02.594Z,8.58
2018-09-19T19:57:30.423Z,13.53
2018-09-19T19:59:58.288Z,9.73
2018-09-19T20:02:26.195Z,10.30
2018-09-19T20:04:54.029Z,7.72
2018-09-19T20:07:21.935Z,14.90
2018-09-19T20:09:49.866Z,11.05
2018-09-19T20:12:17.689Z,8.68
2018-09-19T20:14:45.513Z,9.88
2018-09-19T20:17:13.450Z,12.43
2018-09-19T20:19:41.297Z,12.43
2018-09-19T20:22:10.639Z,8.23
2018-09-19T20:24:38.616Z,10.30
2018-09-19T20:27:07.189Z,12.73
2018-09-19T20:29:35.253Z,14.75
2018-09-19T20:32:03.113Z,16.42
2018-09-19T20:34:30.990Z,10.28
2018-09-19T20:36:58.964Z,13.53
2018-09-19T20:39:26.877Z,9.08
2018-09-19T20:41:54.698Z,7.03
2018-09-19T20:44:24.607Z,9.90
2018-09-19T20:46:52.431Z,8.23
2018-09-19T20:49:20.335Z,13.22
2018-09-19T20:51:48.169Z,9.28
2018-09-19T20:54:16.176Z,9.88
2018-09-19T20:56:44.019Z,13.43
2018-09-19T20:59:11.846Z,6.60
2018-09-19T21:01:39.714Z,8.38
2018-09-19T21:04:07.567Z,12.33
2018-09-19T21:06:35.444Z,9.25
2018-09-19T21:09:04.227Z,11.78
2018-09-19T21:11:33.321Z,14.33
2018-09-19T21:14:01.144Z,11.78
2018-09-19T21:16:29.120Z,7.78
2018-09-19T21:18:57.022Z,11.75
2018-09-19T21:21:24.889Z,9.08
2018-09-19T21:23:52.717Z,16.75
2018-09-19T21:26:20.655Z,9.70
2018-09-19T21:28:48.521Z,6.47
2018-09-19T21:31:16.285Z,11.28
2018-09-19T21:33:44.214Z,11.70
2018-09-19T21:36:12.054Z,11.40
2018-09-19T21:38:39.984Z,12.82
2018-09-19T21:41:07.857Z,14.63
2018-09-19T21:43:35.681Z,10.13
2018-09-19T21:46:03.484Z,14.15
2018-09-19T21:48:31.519Z,9.95
2018-09-19T21:50:59.313Z,8.48
2018-09-19T21:53:27.228Z,12.47
2018-09-19T21:55:55.058Z,15.48
2018-09-19T21:58:22.841Z,12.82
2018-09-19T22:01:07.156Z,12.43
2018-09-19T22:03:35.362Z,13.10
2018-09-19T22:06:03.163Z,8.50
2018-09-19T22:08:31.006Z,11.10
2018-09-19T22:10:58.826Z,7.10
2018-09-19T22:13:26.653Z,13.40
2018-09-19T22:15:54.623Z,15.48
2018-09-19T22:18:22.804Z,11.53
2018-09-19T22:20:50.701Z,14.45
2018-09-19T22:23:18.519Z,10.30
2018-09-19T22:25:46.365Z,14.55
2018-09-19T22:28:14.189Z,19.00
2018-09-19T22:30:42.054Z,13.13
2018-09-19T22:33:09.874Z,13.18
2018-09-19T22:35:38.776Z,12.40
2018-09-19T22:38:06.666Z,11.78
2018-09-19T22:40:40.274Z,14.38
2018-09-19T22:43:08.113Z,13.45
2018-09-19T22:45:43.405Z,18.87
2018-09-19T22:48:11.220Z,19.23
2018-09-19T22:50:41.314Z,15.68
2018-09-19T22:53:09.115Z,18.82
2018-09-19T22:55:37.044Z,16.07
2018-09-19T22:58:04.997Z,15.15
2018-09-19T23:00:32.882Z,20.00
2018-09-19T23:03:01.712Z,18.17
2018-09-19T23:05:29.524Z,13.45
2018-09-19T23:07:57.363Z,18.70
2018-09-19T23:10:25.184Z,14.28
2018-09-19T23:12:53.094Z,20.40
2018-09-19T23:15:20.926Z,18.50
2018-09-19T23:17:49.876Z,16.55
2018-09-19T23:20:17.736Z,13.72
2018-09-19T23:22:50.604Z,17.32
2018-09-19T23:25:18.418Z,19.85
2018-09-19T23:27:46.239Z,14.90
2018-09-19T23:30:22.433Z,12.07
2018-09-19T23:32:50.267Z,25.82
2018-09-19T23:35:20.190Z,18.65
2018-09-19T23:37:48.042Z,23.05
2018-09-19T23:40:15.895Z,21.33
2018-09-19T23:42:43.776Z,21.93
2018-09-19T23:45:13.710Z,14.45
2018-09-19T23:47:41.485Z,22.00
2018-09-19T23:50:10.416Z,21.93
